FD40 weather

Amistad North Heliport
Okeechobee, Florida, United States

Public forecast

Using degrees Fahrenheit for public forecast. Weather courtesy of forecast.io.

Closest aviation weather report (METAR) to Amistad North Heliport

Closest report is Okeechobee County Airport, 9.0 nm (16.6 km) W. Retrieved 2019/10/21 16:35 UTC (0 seconds ago):

KOBE 211635Z AUTO 20009KT 10SM CLR 30/23 A3000 RMK AO2 LTG DSNT NW

Closest aviation forecast (TAF) to Amistad North Heliport

Closest forecast is St Lucie County International Airport, 21.4 nm (39.7 km) NE. Retrieved 2019/10/21 12:45 UTC (4 hours ago):

TAF KFPR 211142Z 2112/2212 VRB02KT P6SM SKC FM211400 22005KT P6SM FEW040 SCT080 FM211800 15008KT P6SM SCT040 BKN080 FM220100 20005KT P6SM FEW035